<?xml version="1.0" encoding="UTF-8" standalone="no" ?>
<gpx xmlns="http://www.topografix.com/GPX/1/1" xmlns:xsi="http://www.w3.org/2001/XMLSchema-instance" xsi:schemaLocation="http://www.topografix.com/GPX/1/1 http://www.topografix.com/GPX/1/1/gpx.xsd" version="1.1" creator="VisuGPX - https://www.visugpx.com">
  <metadata>
    <name>14701392-saint lary 4</name>
  </metadata>
  <trk>
    <name><![CDATA[14701392-saint lary 4]]></name>
    <trkseg>
      <trkpt lat="42.93417" lon="0.88814">
        <ele>734</ele>
        <time>2022-05-17T18:41:52Z</time>
      </trkpt>
      <trkpt lat="42.93399" lon="0.88831">
        <ele>733</ele>
        <time>2022-05-17T18:42:21Z</time>
      </trkpt>
      <trkpt lat="42.93397" lon="0.88858">
        <ele>733</ele>
        <time>2022-05-17T18:42:48Z</time>
      </trkpt>
      <trkpt lat="42.93394" lon="0.88899">
        <ele>734</ele>
        <time>2022-05-17T18:43:28Z</time>
      </trkpt>
      <trkpt lat="42.93327" lon="0.8893">
        <ele>722</ele>
        <time>2022-05-17T18:45:02Z</time>
      </trkpt>
      <trkpt lat="42.93261" lon="0.88935">
        <ele>729</ele>
        <time>2022-05-17T18:46:31Z</time>
      </trkpt>
      <trkpt lat="42.93147" lon="0.8909">
        <ele>717</ele>
        <time>2022-05-17T18:50:05Z</time>
      </trkpt>
      <trkpt lat="42.93081" lon="0.89102">
        <ele>728</ele>
        <time>2022-05-17T18:51:34Z</time>
      </trkpt>
      <trkpt lat="42.93056" lon="0.89172">
        <ele>725</ele>
        <time>2022-05-17T18:52:50Z</time>
      </trkpt>
      <trkpt lat="42.93047" lon="0.89278">
        <ele>718</ele>
        <time>2022-05-17T18:54:34Z</time>
      </trkpt>
      <trkpt lat="42.9299" lon="0.89315">
        <ele>722</ele>
        <time>2022-05-17T18:55:59Z</time>
      </trkpt>
      <trkpt lat="42.9295" lon="0.89333">
        <ele>713</ele>
        <time>2022-05-17T18:56:55Z</time>
      </trkpt>
      <trkpt lat="42.92932" lon="0.89347">
        <ele>708</ele>
        <time>2022-05-17T18:57:23Z</time>
      </trkpt>
      <trkpt lat="42.92916" lon="0.89311">
        <ele>716</ele>
        <time>2022-05-17T18:58:04Z</time>
      </trkpt>
      <trkpt lat="42.9292" lon="0.89222">
        <ele>735</ele>
        <time>2022-05-17T18:59:31Z</time>
      </trkpt>
      <trkpt lat="42.929" lon="0.89148">
        <ele>744</ele>
        <time>2022-05-17T19:00:48Z</time>
      </trkpt>
      <trkpt lat="42.92859" lon="0.89142">
        <ele>740</ele>
        <time>2022-05-17T19:01:43Z</time>
      </trkpt>
      <trkpt lat="42.92876" lon="0.8909">
        <ele>757</ele>
        <time>2022-05-17T19:02:39Z</time>
      </trkpt>
      <trkpt lat="42.92844" lon="0.89107">
        <ele>749</ele>
        <time>2022-05-17T19:03:24Z</time>
      </trkpt>
      <trkpt lat="42.92804" lon="0.89083">
        <ele>750</ele>
        <time>2022-05-17T19:04:23Z</time>
      </trkpt>
      <trkpt lat="42.92772" lon="0.89017">
        <ele>766</ele>
        <time>2022-05-17T19:05:40Z</time>
      </trkpt>
      <trkpt lat="42.9275" lon="0.88938">
        <ele>781</ele>
        <time>2022-05-17T19:07:03Z</time>
      </trkpt>
      <trkpt lat="42.92744" lon="0.88866">
        <ele>790</ele>
        <time>2022-05-17T19:08:13Z</time>
      </trkpt>
      <trkpt lat="42.9274" lon="0.88738">
        <ele>809</ele>
        <time>2022-05-17T19:10:19Z</time>
      </trkpt>
      <trkpt lat="42.92725" lon="0.88705">
        <ele>814</ele>
        <time>2022-05-17T19:10:57Z</time>
      </trkpt>
      <trkpt lat="42.92667" lon="0.88681">
        <ele>809</ele>
        <time>2022-05-17T19:12:17Z</time>
      </trkpt>
      <trkpt lat="42.92641" lon="0.8866">
        <ele>803</ele>
        <time>2022-05-17T19:12:58Z</time>
      </trkpt>
      <trkpt lat="42.92624" lon="0.88584">
        <ele>815</ele>
        <time>2022-05-17T19:14:15Z</time>
      </trkpt>
      <trkpt lat="42.92572" lon="0.88495">
        <ele>818</ele>
        <time>2022-05-17T19:16:07Z</time>
      </trkpt>
      <trkpt lat="42.92532" lon="0.88486">
        <ele>812</ele>
        <time>2022-05-17T19:17:01Z</time>
      </trkpt>
      <trkpt lat="42.92463" lon="0.88383">
        <ele>843</ele>
        <time>2022-05-17T19:19:17Z</time>
      </trkpt>
      <trkpt lat="42.92432" lon="0.88349">
        <ele>851</ele>
        <time>2022-05-17T19:20:10Z</time>
      </trkpt>
      <trkpt lat="42.92392" lon="0.88335">
        <ele>853</ele>
        <time>2022-05-17T19:21:05Z</time>
      </trkpt>
      <trkpt lat="42.9235" lon="0.88316">
        <ele>857</ele>
        <time>2022-05-17T19:22:04Z</time>
      </trkpt>
      <trkpt lat="42.9232" lon="0.8827">
        <ele>871</ele>
        <time>2022-05-17T19:23:05Z</time>
      </trkpt>
      <trkpt lat="42.92261" lon="0.88262">
        <ele>868</ele>
        <time>2022-05-17T19:24:24Z</time>
      </trkpt>
      <trkpt lat="42.92205" lon="0.88201">
        <ele>869</ele>
        <time>2022-05-17T19:25:59Z</time>
      </trkpt>
      <trkpt lat="42.9217" lon="0.8811">
        <ele>875</ele>
        <time>2022-05-17T19:27:40Z</time>
      </trkpt>
      <trkpt lat="42.92125" lon="0.87994">
        <ele>876</ele>
        <time>2022-05-17T19:29:48Z</time>
      </trkpt>
      <trkpt lat="42.92036" lon="0.87995">
        <ele>862</ele>
        <time>2022-05-17T19:31:47Z</time>
      </trkpt>
      <trkpt lat="42.9197" lon="0.87949">
        <ele>859</ele>
        <time>2022-05-17T19:33:26Z</time>
      </trkpt>
      <trkpt lat="42.91923" lon="0.87904">
        <ele>857</ele>
        <time>2022-05-17T19:34:42Z</time>
      </trkpt>
      <trkpt lat="42.91899" lon="0.87828">
        <ele>854</ele>
        <time>2022-05-17T19:36:03Z</time>
      </trkpt>
      <trkpt lat="42.91919" lon="0.87785">
        <ele>857</ele>
        <time>2022-05-17T19:36:53Z</time>
      </trkpt>
      <trkpt lat="42.9189" lon="0.87755">
        <ele>847</ele>
        <time>2022-05-17T19:37:41Z</time>
      </trkpt>
      <trkpt lat="42.9186" lon="0.87767">
        <ele>839</ele>
        <time>2022-05-17T19:38:23Z</time>
      </trkpt>
      <trkpt lat="42.91776" lon="0.87849">
        <ele>811</ele>
        <time>2022-05-17T19:40:41Z</time>
      </trkpt>
      <trkpt lat="42.91767" lon="0.8777">
        <ele>803</ele>
        <time>2022-05-17T19:41:59Z</time>
      </trkpt>
      <trkpt lat="42.91736" lon="0.87703">
        <ele>786</ele>
        <time>2022-05-17T19:43:17Z</time>
      </trkpt>
      <trkpt lat="42.91741" lon="0.87631">
        <ele>784</ele>
        <time>2022-05-17T19:44:27Z</time>
      </trkpt>
      <trkpt lat="42.91772" lon="0.87518">
        <ele>787</ele>
        <time>2022-05-17T19:46:25Z</time>
      </trkpt>
      <trkpt lat="42.91759" lon="0.87427">
        <ele>777</ele>
        <time>2022-05-17T19:47:56Z</time>
      </trkpt>
      <trkpt lat="42.91796" lon="0.8733">
        <ele>784</ele>
        <time>2022-05-17T19:49:43Z</time>
      </trkpt>
      <trkpt lat="42.91741" lon="0.87342">
        <ele>768</ele>
        <time>2022-05-17T19:50:57Z</time>
      </trkpt>
      <trkpt lat="42.9171" lon="0.87288">
        <ele>771</ele>
        <time>2022-05-17T19:52:04Z</time>
      </trkpt>
      <trkpt lat="42.91663" lon="0.87318">
        <ele>763</ele>
        <time>2022-05-17T19:53:13Z</time>
      </trkpt>
      <trkpt lat="42.91623" lon="0.8743">
        <ele>772</ele>
        <time>2022-05-17T19:55:15Z</time>
      </trkpt>
      <trkpt lat="42.91581" lon="0.87722">
        <ele>764</ele>
        <time>2022-05-17T20:00:06Z</time>
      </trkpt>
      <trkpt lat="42.91598" lon="0.87882">
        <ele>760</ele>
        <time>2022-05-17T20:02:44Z</time>
      </trkpt>
      <trkpt lat="42.91577" lon="0.88078">
        <ele>739</ele>
        <time>2022-05-17T20:05:57Z</time>
      </trkpt>
      <trkpt lat="42.91581" lon="0.88118">
        <ele>738</ele>
        <time>2022-05-17T20:06:37Z</time>
      </trkpt>
      <trkpt lat="42.91705" lon="0.88192">
        <ele>744</ele>
        <time>2022-05-17T20:09:37Z</time>
      </trkpt>
      <trkpt lat="42.91767" lon="0.8826">
        <ele>738</ele>
        <time>2022-05-17T20:11:24Z</time>
      </trkpt>
      <trkpt lat="42.91865" lon="0.88316">
        <ele>740</ele>
        <time>2022-05-17T20:13:45Z</time>
      </trkpt>
      <trkpt lat="42.91923" lon="0.88407">
        <ele>745</ele>
        <time>2022-05-17T20:15:43Z</time>
      </trkpt>
      <trkpt lat="42.92014" lon="0.8845">
        <ele>742</ele>
        <time>2022-05-17T20:17:52Z</time>
      </trkpt>
      <trkpt lat="42.92147" lon="0.88596">
        <ele>738</ele>
        <time>2022-05-17T20:21:39Z</time>
      </trkpt>
      <trkpt lat="42.92281" lon="0.88635">
        <ele>732</ele>
        <time>2022-05-17T20:24:42Z</time>
      </trkpt>
      <trkpt lat="42.92401" lon="0.8872">
        <ele>728</ele>
        <time>2022-05-17T20:27:43Z</time>
      </trkpt>
      <trkpt lat="42.9245" lon="0.88832">
        <ele>726</ele>
        <time>2022-05-17T20:29:50Z</time>
      </trkpt>
      <trkpt lat="42.92434" lon="0.88872">
        <ele>728</ele>
        <time>2022-05-17T20:30:35Z</time>
      </trkpt>
      <trkpt lat="42.9243" lon="0.88829">
        <ele>732</ele>
        <time>2022-05-17T20:31:17Z</time>
      </trkpt>
      <trkpt lat="42.92391" lon="0.88767">
        <ele>736</ele>
        <time>2022-05-17T20:32:37Z</time>
      </trkpt>
      <trkpt lat="42.92303" lon="0.88721">
        <ele>748</ele>
        <time>2022-05-17T20:34:43Z</time>
      </trkpt>
      <trkpt lat="42.92099" lon="0.88693">
        <ele>788</ele>
        <time>2022-05-17T20:39:16Z</time>
      </trkpt>
      <trkpt lat="42.92052" lon="0.88678">
        <ele>800</ele>
        <time>2022-05-17T20:40:21Z</time>
      </trkpt>
      <trkpt lat="42.91974" lon="0.88592">
        <ele>801</ele>
        <time>2022-05-17T20:42:35Z</time>
      </trkpt>
      <trkpt lat="42.91811" lon="0.88549">
        <ele>811</ele>
        <time>2022-05-17T20:46:16Z</time>
      </trkpt>
      <trkpt lat="42.91661" lon="0.88498">
        <ele>811</ele>
        <time>2022-05-17T20:49:42Z</time>
      </trkpt>
      <trkpt lat="42.91563" lon="0.88486">
        <ele>809</ele>
        <time>2022-05-17T20:51:54Z</time>
      </trkpt>
      <trkpt lat="42.91514" lon="0.88501">
        <ele>808</ele>
        <time>2022-05-17T20:53:01Z</time>
      </trkpt>
      <trkpt lat="42.91474" lon="0.88562">
        <ele>818</ele>
        <time>2022-05-17T20:54:21Z</time>
      </trkpt>
      <trkpt lat="42.9147" lon="0.88501">
        <ele>807</ele>
        <time>2022-05-17T20:55:21Z</time>
      </trkpt>
      <trkpt lat="42.91392" lon="0.8852">
        <ele>809</ele>
        <time>2022-05-17T20:57:06Z</time>
      </trkpt>
      <trkpt lat="42.91318" lon="0.8858">
        <ele>817</ele>
        <time>2022-05-17T20:59:01Z</time>
      </trkpt>
      <trkpt lat="42.91276" lon="0.88653">
        <ele>828</ele>
        <time>2022-05-17T21:00:32Z</time>
      </trkpt>
      <trkpt lat="42.91294" lon="0.88729">
        <ele>847</ele>
        <time>2022-05-17T21:01:50Z</time>
      </trkpt>
      <trkpt lat="42.91356" lon="0.88674">
        <ele>839</ele>
        <time>2022-05-17T21:03:29Z</time>
      </trkpt>
      <trkpt lat="42.91436" lon="0.88693">
        <ele>848</ele>
        <time>2022-05-17T21:05:17Z</time>
      </trkpt>
      <trkpt lat="42.91541" lon="0.88778">
        <ele>866</ele>
        <time>2022-05-17T21:08:00Z</time>
      </trkpt>
      <trkpt lat="42.91577" lon="0.88794">
        <ele>869</ele>
        <time>2022-05-17T21:08:50Z</time>
      </trkpt>
      <trkpt lat="42.91622" lon="0.88797">
        <ele>874</ele>
        <time>2022-05-17T21:09:50Z</time>
      </trkpt>
      <trkpt lat="42.91635" lon="0.88813">
        <ele>879</ele>
        <time>2022-05-17T21:10:14Z</time>
      </trkpt>
      <trkpt lat="42.91583" lon="0.88839">
        <ele>883</ele>
        <time>2022-05-17T21:11:28Z</time>
      </trkpt>
      <trkpt lat="42.91617" lon="0.8885">
        <ele>889</ele>
        <time>2022-05-17T21:12:14Z</time>
      </trkpt>
      <trkpt lat="42.91644" lon="0.88867">
        <ele>896</ele>
        <time>2022-05-17T21:12:54Z</time>
      </trkpt>
      <trkpt lat="42.9169" lon="0.88871">
        <ele>901</ele>
        <time>2022-05-17T21:13:56Z</time>
      </trkpt>
      <trkpt lat="42.91709" lon="0.88888">
        <ele>909</ele>
        <time>2022-05-17T21:14:26Z</time>
      </trkpt>
      <trkpt lat="42.91717" lon="0.88848">
        <ele>899</ele>
        <time>2022-05-17T21:15:06Z</time>
      </trkpt>
      <trkpt lat="42.91746" lon="0.88811">
        <ele>896</ele>
        <time>2022-05-17T21:15:59Z</time>
      </trkpt>
      <trkpt lat="42.91834" lon="0.88839">
        <ele>903</ele>
        <time>2022-05-17T21:18:00Z</time>
      </trkpt>
      <trkpt lat="42.91907" lon="0.88836">
        <ele>901</ele>
        <time>2022-05-17T21:19:37Z</time>
      </trkpt>
      <trkpt lat="42.91999" lon="0.88988">
        <ele>922</ele>
        <time>2022-05-17T21:22:50Z</time>
      </trkpt>
      <trkpt lat="42.91997" lon="0.89043">
        <ele>924</ele>
        <time>2022-05-17T21:23:44Z</time>
      </trkpt>
      <trkpt lat="42.91872" lon="0.89311">
        <ele>948</ele>
        <time>2022-05-17T21:28:54Z</time>
      </trkpt>
      <trkpt lat="42.91933" lon="0.89389">
        <ele>931</ele>
        <time>2022-05-17T21:30:46Z</time>
      </trkpt>
      <trkpt lat="42.91971" lon="0.89458">
        <ele>938</ele>
        <time>2022-05-17T21:32:10Z</time>
      </trkpt>
      <trkpt lat="42.92015" lon="0.89412">
        <ele>923</ele>
        <time>2022-05-17T21:33:24Z</time>
      </trkpt>
      <trkpt lat="42.92061" lon="0.89324">
        <ele>912</ele>
        <time>2022-05-17T21:35:10Z</time>
      </trkpt>
      <trkpt lat="42.92073" lon="0.89265">
        <ele>891</ele>
        <time>2022-05-17T21:36:10Z</time>
      </trkpt>
      <trkpt lat="42.92104" lon="0.89232">
        <ele>876</ele>
        <time>2022-05-17T21:37:02Z</time>
      </trkpt>
      <trkpt lat="42.9225" lon="0.89143">
        <ele>839</ele>
        <time>2022-05-17T21:40:36Z</time>
      </trkpt>
      <trkpt lat="42.92331" lon="0.8911">
        <ele>817</ele>
        <time>2022-05-17T21:42:28Z</time>
      </trkpt>
      <trkpt lat="42.92363" lon="0.89128">
        <ele>815</ele>
        <time>2022-05-17T21:43:15Z</time>
      </trkpt>
      <trkpt lat="42.92399" lon="0.89134">
        <ele>806</ele>
        <time>2022-05-17T21:44:03Z</time>
      </trkpt>
      <trkpt lat="42.92511" lon="0.89239">
        <ele>789</ele>
        <time>2022-05-17T21:47:04Z</time>
      </trkpt>
      <trkpt lat="42.92528" lon="0.89278">
        <ele>783</ele>
        <time>2022-05-17T21:47:49Z</time>
      </trkpt>
      <trkpt lat="42.92527" lon="0.89344">
        <ele>788</ele>
        <time>2022-05-17T21:48:53Z</time>
      </trkpt>
      <trkpt lat="42.92577" lon="0.89344">
        <ele>768</ele>
        <time>2022-05-17T21:50:00Z</time>
      </trkpt>
      <trkpt lat="42.92655" lon="0.89372">
        <ele>757</ele>
        <time>2022-05-17T21:51:47Z</time>
      </trkpt>
      <trkpt lat="42.92727" lon="0.89409">
        <ele>735</ele>
        <time>2022-05-17T21:53:30Z</time>
      </trkpt>
      <trkpt lat="42.92782" lon="0.89448">
        <ele>719</ele>
        <time>2022-05-17T21:54:53Z</time>
      </trkpt>
      <trkpt lat="42.9282" lon="0.89421">
        <ele>694</ele>
        <time>2022-05-17T21:55:50Z</time>
      </trkpt>
      <trkpt lat="42.92821" lon="0.89404">
        <ele>693</ele>
        <time>2022-05-17T21:56:07Z</time>
      </trkpt>
      <trkpt lat="42.92816" lon="0.89369">
        <ele>693</ele>
        <time>2022-05-17T21:56:41Z</time>
      </trkpt>
      <trkpt lat="42.92837" lon="0.89352">
        <ele>690</ele>
        <time>2022-05-17T21:57:14Z</time>
      </trkpt>
      <trkpt lat="42.9289" lon="0.89519">
        <ele>687</ele>
        <time>2022-05-17T22:00:12Z</time>
      </trkpt>
      <trkpt lat="42.92915" lon="0.89486">
        <ele>683</ele>
        <time>2022-05-17T22:00:58Z</time>
      </trkpt>
      <trkpt lat="42.92977" lon="0.89453">
        <ele>692</ele>
        <time>2022-05-17T22:02:27Z</time>
      </trkpt>
      <trkpt lat="42.93024" lon="0.89418">
        <ele>695</ele>
        <time>2022-05-17T22:03:38Z</time>
      </trkpt>
      <trkpt lat="42.93052" lon="0.89372">
        <ele>701</ele>
        <time>2022-05-17T22:04:37Z</time>
      </trkpt>
      <trkpt lat="42.93093" lon="0.89278">
        <ele>707</ele>
        <time>2022-05-17T22:06:24Z</time>
      </trkpt>
      <trkpt lat="42.93075" lon="0.89215">
        <ele>714</ele>
        <time>2022-05-17T22:07:30Z</time>
      </trkpt>
      <trkpt lat="42.93071" lon="0.89168">
        <ele>717</ele>
        <time>2022-05-17T22:08:16Z</time>
      </trkpt>
      <trkpt lat="42.93093" lon="0.89115">
        <ele>722</ele>
        <time>2022-05-17T22:09:16Z</time>
      </trkpt>
      <trkpt lat="42.93142" lon="0.89093">
        <ele>718</ele>
        <time>2022-05-17T22:10:25Z</time>
      </trkpt>
      <trkpt lat="42.93186" lon="0.8904">
        <ele>721</ele>
        <time>2022-05-17T22:11:43Z</time>
      </trkpt>
      <trkpt lat="42.93256" lon="0.88934">
        <ele>730</ele>
        <time>2022-05-17T22:14:02Z</time>
      </trkpt>
      <trkpt lat="42.93331" lon="0.88925">
        <ele>721</ele>
        <time>2022-05-17T22:15:43Z</time>
      </trkpt>
      <trkpt lat="42.93398" lon="0.88895">
        <ele>735</ele>
        <time>2022-05-17T22:17:17Z</time>
      </trkpt>
      <trkpt lat="42.93396" lon="0.88845">
        <ele>733</ele>
        <time>2022-05-17T22:18:06Z</time>
      </trkpt>
      <trkpt lat="42.93417" lon="0.88815">
        <ele>734</ele>
        <time>2022-05-17T22:18:46Z</time>
      </trkpt>
    </trkseg>
  </trk>
</gpx>